logo
Search for airport 
image banner adimage banner adimage banner ad
image banner ad

HKTE - Taita Estate

Located in , Kenya

ICAO - , IATA -

Data provided by Airmate  

General information

Coordinates: S3°33'0" E39°30'0"
Elevation is 756 feet MSL.
 
View others Airports in Coast Province

Operational data

Special qualification required
Current time UTC:
Current local time:
Weather at : HKMO - Mombasa Moi Intl ( 54 km )
METAR: HKMO 230330Z VRB02KT 9999 FEW020 BKN080 25/24 Q1010 NOSIG
TAF: TAF HKMO 222300Z 2300/2406 23005KT 9999 SCT018 BKN080 BECMG 2300/2303 -RA SCT018 BKN080 BECMG 2309/2312 20010KT BECMG 2315/2318 NSW FEW022 BKN080 BECMG 2400/2403 22005KT BKN020
View NOTAMs / SUP AIP / TFR affecting this airport [VIEW]
Communications frequencies: [VIEW]

Runways:

Airport contact information

Address: Kenya

Satellite view of HKTE